createdAt,value
2023-01-15T00:00:03.876Z,2.9
2023-01-15T00:01:03.907Z,0.9
2023-01-15T00:02:03.815Z,0.9
2023-01-15T00:03:03.839Z,0.9
2023-01-15T00:04:03.872Z,1.9
2023-01-15T00:05:03.884Z,1.9
2023-01-15T00:06:03.825Z,1.9
2023-01-15T00:07:03.821Z,3.3
2023-01-15T00:08:03.875Z,3.3
2023-01-15T00:09:03.906Z,3.3
2023-01-15T00:10:03.919Z,1.8
2023-01-15T00:11:03.816Z,1.8
2023-01-15T00:12:03.831Z,1.8
2023-01-15T00:13:03.833Z,1.8
2023-01-15T00:14:03.883Z,1.4
2023-01-15T00:15:03.836Z,1.4
2023-01-15T00:16:03.886Z,1.4
2023-01-15T00:17:03.829Z,2
2023-01-15T00:18:03.835Z,2
2023-01-15T00:19:03.877Z,2
2023-01-15T00:20:03.840Z,4
2023-01-15T00:21:03.832Z,4
2023-01-15T00:22:03.837Z,4
2023-01-15T00:23:03.825Z,4
2023-01-15T00:24:03.939Z,2.4
2023-01-15T00:25:03.894Z,2.4
2023-01-15T00:26:03.885Z,2.4
2023-01-15T00:27:03.897Z,3.2
2023-01-15T00:28:03.856Z,3.2
2023-01-15T00:29:03.892Z,3.2
2023-01-15T00:30:03.851Z,2.5
2023-01-15T00:31:03.878Z,2.5
2023-01-15T00:32:03.841Z,2.5
2023-01-15T00:33:03.848Z,2.5
2023-01-15T00:34:03.902Z,2.8
2023-01-15T00:35:03.851Z,2.8
2023-01-15T00:36:03.890Z,2.8
2023-01-15T00:37:03.864Z,4.5
2023-01-15T00:38:03.852Z,4.5
2023-01-15T00:39:03.918Z,4.5
2023-01-15T00:40:03.966Z,2.6
2023-01-15T00:41:03.864Z,2.6
2023-01-15T00:42:03.919Z,2.6
2023-01-15T00:43:03.927Z,2.6
2023-01-15T00:44:03.926Z,1.9
2023-01-15T00:45:03.884Z,1.9
2023-01-15T00:46:03.955Z,1.9
2023-01-15T00:47:03.878Z,5.5
2023-01-15T00:48:03.876Z,5.5
2023-01-15T00:49:03.953Z,5.5
2023-01-15T00:50:03.942Z,3.3
2023-01-15T00:51:03.875Z,3.3
2023-01-15T00:52:03.941Z,3.3
2023-01-15T00:53:03.891Z,3.3
2023-01-15T00:54:03.886Z,0.9
2023-01-15T00:55:03.892Z,0.9
2023-01-15T00:56:03.880Z,0.9
2023-01-15T00:57:03.879Z,3.7
2023-01-15T00:58:03.959Z,3.7
2023-01-15T00:59:03.973Z,3.7
2023-01-15T01:00:03.871Z,3.6
2023-01-15T01:01:03.950Z,3.6
2023-01-15T01:02:03.921Z,3.6
2023-01-15T01:03:03.869Z,3.6
2023-01-15T01:04:03.885Z,3
2023-01-15T01:05:03.883Z,3
2023-01-15T01:06:03.873Z,3
2023-01-15T01:07:03.871Z,1
2023-01-15T01:08:03.873Z,1
2023-01-15T01:09:03.879Z,1
2023-01-15T01:10:03.879Z,3.5
2023-01-15T01:11:03.886Z,3.5
2023-01-15T01:12:03.969Z,3.5
2023-01-15T01:13:03.887Z,3.5
2023-01-15T01:14:03.891Z,2.9
2023-01-15T01:15:03.880Z,2.9
2023-01-15T01:16:03.915Z,2.9
2023-01-15T01:17:03.884Z,3.3
2023-01-15T01:18:03.883Z,3.3
2023-01-15T01:19:03.886Z,3.3
2023-01-15T01:20:03.907Z,4.3
2023-01-15T01:21:03.883Z,4.3
2023-01-15T01:22:03.972Z,4.3
2023-01-15T01:23:03.884Z,4.3
2023-01-15T01:24:03.890Z,4.2
2023-01-15T01:25:03.888Z,4.2
2023-01-15T01:26:03.883Z,4.2
2023-01-15T01:27:03.887Z,2.7
2023-01-15T01:28:03.897Z,2.7
2023-01-15T01:29:03.891Z,2.7
2023-01-15T01:30:03.887Z,4.6
2023-01-15T01:31:03.925Z,4.6
2023-01-15T01:32:03.894Z,4.6
2023-01-15T01:33:03.907Z,4.6
2023-01-15T01:34:03.943Z,2.4
2023-01-15T01:35:03.890Z,2.4
2023-01-15T01:36:03.892Z,2.4
2023-01-15T01:37:03.923Z,4.3
2023-01-15T01:38:03.878Z,4.3
2023-01-15T01:39:03.884Z,4.3
2023-01-15T01:40:03.885Z,4.3
2023-01-15T01:41:03.916Z,3.8
2023-01-15T01:42:03.878Z,3.8
2023-01-15T01:43:03.884Z,3.8
2023-01-15T01:44:03.956Z,2.4
2023-01-15T01:45:03.920Z,2.4
2023-01-15T01:46:03.922Z,2.4
2023-01-15T01:47:03.885Z,2.7
2023-01-15T01:48:03.918Z,2.7
2023-01-15T01:49:03.886Z,2.7
2023-01-15T01:50:03.886Z,2.7
2023-01-15T01:51:03.904Z,5.8
2023-01-15T01:52:03.886Z,5.8
2023-01-15T01:53:03.895Z,5.8
2023-01-15T01:54:03.880Z,2.5
2023-01-15T01:55:03.894Z,2.5
2023-01-15T01:56:03.989Z,2.5
2023-01-15T01:57:04.018Z,2.9
2023-01-15T01:58:03.923Z,2.9
2023-01-15T01:59:03.927Z,2.9
2023-01-15T02:00:03.877Z,2.9
2023-01-15T02:01:04.027Z,2.4
2023-01-15T02:02:04.025Z,2.4
2023-01-15T02:03:03.926Z,2.4
2023-01-15T02:04:03.918Z,1.3
2023-01-15T02:05:03.940Z,1.3
2023-01-15T02:06:03.854Z,1.3
2023-01-15T02:07:03.891Z,2.7
2023-01-15T02:08:03.859Z,2.7
2023-01-15T02:09:04.027Z,2.7
2023-01-15T02:10:03.936Z,2.7
2023-01-15T02:11:03.860Z,2.1
2023-01-15T02:12:03.868Z,2.1
2023-01-15T02:13:03.882Z,2.1
2023-01-15T02:14:03.891Z,2.4
2023-01-15T02:15:03.892Z,2.4
2023-01-15T02:16:03.971Z,2.4
2023-01-15T02:17:03.886Z,2.3
2023-01-15T02:18:04.135Z,2.3
2023-01-15T02:19:03.886Z,2.3
2023-01-15T02:20:03.893Z,2.3
2023-01-15T02:21:03.877Z,3.7
2023-01-15T02:22:03.900Z,3.7
2023-01-15T02:23:03.881Z,3.7
2023-01-15T02:24:03.894Z,2.4
2023-01-15T02:25:03.929Z,2.4
2023-01-15T02:26:03.873Z,2.4
2023-01-15T02:27:03.903Z,2.9
2023-01-15T02:28:03.941Z,2.9
2023-01-15T02:29:03.905Z,2.9
2023-01-15T02:30:03.890Z,2.9
2023-01-15T02:31:03.896Z,2.6
2023-01-15T02:32:03.903Z,2.6
2023-01-15T02:33:03.875Z,2.6
2023-01-15T02:34:03.897Z,4.4
2023-01-15T02:35:03.884Z,4.4
2023-01-15T02:36:03.944Z,4.4
2023-01-15T02:37:03.884Z,0.6
2023-01-15T02:38:03.866Z,0.6
2023-01-15T02:39:03.881Z,0.6
2023-01-15T02:40:03.888Z,0.6
2023-01-15T02:41:03.882Z,2.6
2023-01-15T02:42:03.886Z,2.6
2023-01-15T02:43:03.876Z,2.6
2023-01-15T02:44:03.881Z,5.5
2023-01-15T02:45:03.888Z,5.5
2023-01-15T02:46:03.896Z,5.5
2023-01-15T02:47:03.873Z,2.7
2023-01-15T02:48:03.892Z,2.7
2023-01-15T02:49:03.936Z,2.7
2023-01-15T02:50:03.897Z,2.7
2023-01-15T02:51:03.888Z,1
2023-01-15T02:52:03.889Z,1
2023-01-15T02:53:03.874Z,1
2023-01-15T02:54:03.893Z,4.6
2023-01-15T02:55:03.960Z,4.6
2023-01-15T02:56:03.883Z,4.6
2023-01-15T02:57:03.951Z,1.9
2023-01-15T02:58:03.909Z,1.9
2023-01-15T02:59:03.882Z,1.9
2023-01-15T03:00:03.902Z,1.9
2023-01-15T03:01:04.029Z,1.6
2023-01-15T03:02:04.108Z,1.6
2023-01-15T03:03:03.919Z,1.6
2023-01-15T03:04:03.887Z,1.1
2023-01-15T03:05:03.884Z,1.1
2023-01-15T03:06:03.876Z,1.1
2023-01-15T03:07:03.903Z,1.1
2023-01-15T03:08:03.892Z,0.7
2023-01-15T03:09:03.935Z,0.7
2023-01-15T03:10:03.871Z,0.7
2023-01-15T03:11:03.891Z,1.2
2023-01-15T03:12:03.909Z,1.2
2023-01-15T03:13:03.896Z,1.2
2023-01-15T03:14:03.980Z,1.9
2023-01-15T03:15:03.893Z,1.9
2023-01-15T03:16:03.910Z,1.9
2023-01-15T03:17:03.891Z,1.9
2023-01-15T03:18:03.899Z,2.4
2023-01-15T03:19:03.892Z,2.4
2023-01-15T03:20:03.880Z,2.4
2023-01-15T03:21:03.893Z,1
2023-01-15T03:22:03.940Z,1
2023-01-15T03:23:03.897Z,1
2023-01-15T03:24:03.954Z,4.3
2023-01-15T03:25:03.908Z,4.3
2023-01-15T03:26:03.886Z,4.3
2023-01-15T03:27:03.899Z,4.3
2023-01-15T03:28:03.894Z,2.2
2023-01-15T03:29:03.911Z,2.2
2023-01-15T03:30:03.946Z,2.2
2023-01-15T03:31:04.061Z,3.5
2023-01-15T03:32:03.947Z,3.5
2023-01-15T03:33:03.896Z,3.5
2023-01-15T03:34:03.957Z,1.4
2023-01-15T03:35:03.962Z,1.4
2023-01-15T03:36:03.959Z,1.4
2023-01-15T03:37:03.943Z,1.4
2023-01-15T03:38:03.908Z,1.5
2023-01-15T03:39:03.944Z,1.5
2023-01-15T03:40:03.941Z,1.5
2023-01-15T03:41:03.922Z,1.1
2023-01-15T03:42:03.896Z,1.1
2023-01-15T03:43:03.893Z,1.1
2023-01-15T03:44:03.936Z,2.4
2023-01-15T03:45:03.912Z,2.4
2023-01-15T03:46:03.932Z,2.4
2023-01-15T03:47:03.889Z,2.4
2023-01-15T03:48:03.901Z,1.1
2023-01-15T03:49:03.903Z,1.1
2023-01-15T03:50:03.894Z,1.1
2023-01-15T03:51:03.948Z,2.2
2023-01-15T03:52:03.892Z,2.2
2023-01-15T03:53:03.887Z,2.2
2023-01-15T03:54:03.983Z,2.5
2023-01-15T03:55:03.881Z,2.5
2023-01-15T03:56:03.896Z,2.5
2023-01-15T03:57:03.919Z,2.5
2023-01-15T03:58:03.910Z,2.1
2023-01-15T03:59:03.950Z,2.1
2023-01-15T04:00:03.879Z,2.1
2023-01-15T04:01:03.990Z,2.4
2023-01-15T04:02:04.058Z,2.4
2023-01-15T04:03:03.915Z,2.4
2023-01-15T04:04:03.999Z,2.5
2023-01-15T04:05:03.943Z,2.5
2023-01-15T04:06:03.888Z,2.5
2023-01-15T04:07:03.897Z,2.5
2023-01-15T04:08:03.949Z,1.2
2023-01-15T04:09:03.944Z,1.2
2023-01-15T04:10:03.947Z,1.2
2023-01-15T04:11:03.889Z,1.2
2023-01-15T04:12:03.961Z,1.2
2023-01-15T04:13:03.907Z,1.2
2023-01-15T04:14:03.914Z,2.5
2023-01-15T04:15:03.989Z,2.5
2023-01-15T04:16:04.054Z,2.5
2023-01-15T04:17:03.899Z,2.5
2023-01-15T04:18:03.906Z,3
2023-01-15T04:19:03.941Z,3
2023-01-15T04:20:03.951Z,3
2023-01-15T04:21:05.493Z,1.6
2023-01-15T04:22:03.889Z,1.6
2023-01-15T04:23:03.949Z,1.6
2023-01-15T04:24:03.911Z,1.7
2023-01-15T04:25:03.954Z,1.7
2023-01-15T04:26:03.950Z,1.7
2023-01-15T04:27:03.906Z,1.7
2023-01-15T04:28:03.896Z,1.1
2023-01-15T04:29:03.943Z,1.1
2023-01-15T04:30:03.965Z,1.1
2023-01-15T04:31:03.950Z,2.2
2023-01-15T04:32:03.911Z,2.2
2023-01-15T04:33:03.940Z,2.2
2023-01-15T04:34:03.952Z,2.4
2023-01-15T04:35:03.891Z,2.4
2023-01-15T04:36:03.911Z,2.4
2023-01-15T04:37:03.920Z,2.4
2023-01-15T04:38:03.904Z,2.9
2023-01-15T04:39:03.966Z,2.9
2023-01-15T04:40:03.896Z,2.9
2023-01-15T04:41:03.916Z,2.8
2023-01-15T04:42:03.897Z,2.8
2023-01-15T04:43:03.903Z,2.8
2023-01-15T04:44:03.941Z,3.9
2023-01-15T04:45:03.965Z,3.9
2023-01-15T04:46:03.951Z,3.9
2023-01-15T04:47:03.896Z,3.9
2023-01-15T04:48:03.913Z,1.2
2023-01-15T04:49:03.894Z,1.2
2023-01-15T04:50:03.927Z,1.2
2023-01-15T04:51:03.912Z,0.5
2023-01-15T04:52:03.902Z,0.5
2023-01-15T04:53:03.915Z,0.5
2023-01-15T04:54:03.923Z,2.7
2023-01-15T04:55:03.903Z,2.7
2023-01-15T04:56:03.960Z,2.7
2023-01-15T04:57:03.968Z,2.7
2023-01-15T04:58:03.904Z,3.2
2023-01-15T04:59:03.929Z,3.2
2023-01-15T05:00:03.910Z,3.2
2023-01-15T05:01:03.994Z,2.4
2023-01-15T05:02:06.223Z,2.4
2023-01-15T05:03:04.050Z,2.4
2023-01-15T05:04:04.025Z,4.2
2023-01-15T05:05:03.964Z,4.2
2023-01-15T05:06:03.916Z,4.2
2023-01-15T05:07:03.913Z,4.2
2023-01-15T05:08:03.927Z,5
2023-01-15T05:09:03.964Z,5
2023-01-15T05:10:03.899Z,5
2023-01-15T05:11:03.902Z,3.9
2023-01-15T05:12:03.913Z,3.9
2023-01-15T05:13:03.949Z,3.9
2023-01-15T05:14:03.908Z,3.3
2023-01-15T05:15:03.934Z,3.3
2023-01-15T05:16:03.947Z,3.3
2023-01-15T05:17:03.902Z,3.3
2023-01-15T05:18:03.902Z,2.3
2023-01-15T05:19:03.917Z,2.3
2023-01-15T05:20:03.933Z,2.3
2023-01-15T05:21:03.933Z,2.4
2023-01-15T05:22:03.909Z,2.4
2023-01-15T05:23:03.905Z,2.4
2023-01-15T05:24:03.963Z,3
2023-01-15T05:25:04.017Z,3
2023-01-15T05:26:04.001Z,3
2023-01-15T05:27:03.915Z,3
2023-01-15T05:28:03.910Z,2.8
2023-01-15T05:29:03.969Z,2.8
2023-01-15T05:30:03.924Z,2.8
2023-01-15T05:31:03.972Z,2.4
2023-01-15T05:32:03.931Z,2.4
2023-01-15T05:33:03.910Z,2.4
2023-01-15T05:34:03.964Z,2
2023-01-15T05:35:03.923Z,2
2023-01-15T05:36:03.929Z,2
2023-01-15T05:37:03.904Z,2
2023-01-15T05:38:03.919Z,1.2
2023-01-15T05:39:03.926Z,1.2
2023-01-15T05:40:03.909Z,1.2
2023-01-15T05:41:03.920Z,0.8
2023-01-15T05:42:03.937Z,0.8
2023-01-15T05:43:03.902Z,0.8
2023-01-15T05:44:03.977Z,1.8
2023-01-15T05:45:03.927Z,1.8
2023-01-15T05:46:03.977Z,1.8
2023-01-15T05:47:04.000Z,1.8
2023-01-15T05:48:03.929Z,0.9
2023-01-15T05:49:03.926Z,0.9
2023-01-15T05:50:03.925Z,0.9
2023-01-15T05:51:03.976Z,1.9
2023-01-15T05:52:03.938Z,1.9
2023-01-15T05:53:03.924Z,1.9
2023-01-15T05:54:03.916Z,1.2
2023-01-15T05:55:03.970Z,1.2
2023-01-15T05:56:03.913Z,1.2
2023-01-15T05:57:03.949Z,1.2
2023-01-15T05:58:03.977Z,1.4
2023-01-15T05:59:03.963Z,1.4
2023-01-15T06:00:03.974Z,1.4
2023-01-15T06:01:03.923Z,0.8
2023-01-15T06:02:03.911Z,0.8
2023-01-15T06:03:04.024Z,0.8
2023-01-15T06:04:04.008Z,0.5
2023-01-15T06:05:03.930Z,0.5
2023-01-15T06:06:03.909Z,0.5
2023-01-15T06:07:03.937Z,0.5
2023-01-15T06:08:03.913Z,1
2023-01-15T06:09:03.969Z,1
2023-01-15T06:10:03.929Z,1
2023-01-15T06:11:03.975Z,0.8
2023-01-15T06:12:03.963Z,0.8
2023-01-15T06:13:03.914Z,0.8
2023-01-15T06:14:03.968Z,0.9
2023-01-15T06:15:03.954Z,0.9
2023-01-15T06:16:04.029Z,0.9
2023-01-15T06:17:03.924Z,0.9
2023-01-15T06:18:03.967Z,2.2
2023-01-15T06:19:03.985Z,2.2
2023-01-15T06:20:03.941Z,2.2
2023-01-15T06:21:03.927Z,0.9
2023-01-15T06:22:03.960Z,0.9
2023-01-15T06:23:03.980Z,0.9
2023-01-15T06:24:03.986Z,1.1
2023-01-15T06:25:03.928Z,1.1
2023-01-15T06:26:03.990Z,1.1
2023-01-15T06:27:03.942Z,1.1
2023-01-15T06:28:04.011Z,2
2023-01-15T06:29:03.981Z,2
2023-01-15T06:30:03.945Z,2
2023-01-15T06:31:03.953Z,2.8
2023-01-15T06:32:03.934Z,2.8
2023-01-15T06:33:03.972Z,2.8
2023-01-15T06:34:03.991Z,2.8
2023-01-15T06:35:03.985Z,2.4
2023-01-15T06:36:03.978Z,2.4
2023-01-15T06:37:03.990Z,2.4
2023-01-15T06:38:03.938Z,2.2
2023-01-15T06:39:05.264Z,2.2
2023-01-15T06:40:03.983Z,2.2
2023-01-15T06:41:03.961Z,1.9
2023-01-15T06:42:03.952Z,1.9
2023-01-15T06:43:03.942Z,1.9
2023-01-15T06:44:03.985Z,1.9
2023-01-15T06:45:04.009Z,3.8
2023-01-15T06:46:03.990Z,3.8
2023-01-15T06:47:03.939Z,3.8
2023-01-15T06:48:03.953Z,3.1
2023-01-15T06:49:03.975Z,3.1
2023-01-15T06:50:03.936Z,3.1
2023-01-15T06:51:03.986Z,1.8
2023-01-15T06:52:03.937Z,1.8
2023-01-15T06:53:03.929Z,1.8
2023-01-15T06:54:03.981Z,1.8
2023-01-15T06:55:04.033Z,2.2
2023-01-15T06:56:03.938Z,2.2
2023-01-15T06:57:04.003Z,2.2
2023-01-15T06:58:04.022Z,3.6
2023-01-15T06:59:03.986Z,3.6
2023-01-15T07:00:03.941Z,3.6
2023-01-15T07:01:04.055Z,2.4
2023-01-15T07:02:03.947Z,2.4
2023-01-15T07:03:03.995Z,2.4
2023-01-15T07:04:04.048Z,2.4
2023-01-15T07:05:03.988Z,1.4
2023-01-15T07:06:03.929Z,1.4
2023-01-15T07:07:03.953Z,1.4
2023-01-15T07:08:03.999Z,2.5
2023-01-15T07:09:03.986Z,2.5
2023-01-15T07:10:03.976Z,2.5
2023-01-15T07:11:03.945Z,2.5
2023-01-15T07:12:03.947Z,2.2
2023-01-15T07:13:03.933Z,2.2
2023-01-15T07:14:04.014Z,2.2
2023-01-15T07:15:03.984Z,0
2023-01-15T07:16:04.040Z,0
2023-01-15T07:17:03.969Z,0
2023-01-15T07:18:04.022Z,1.7
2023-01-15T07:19:03.994Z,1.7
2023-01-15T07:20:03.978Z,1.7
2023-01-15T07:21:03.991Z,1.7
2023-01-15T07:22:03.965Z,1.2
2023-01-15T07:23:03.945Z,1.2
2023-01-15T07:24:03.991Z,1.2
2023-01-15T07:25:03.946Z,2
2023-01-15T07:26:03.940Z,2
2023-01-15T07:27:03.942Z,2
2023-01-15T07:28:03.987Z,0.5
2023-01-15T07:29:03.984Z,0.5
2023-01-15T07:30:03.955Z,0.5
2023-01-15T07:31:03.957Z,0.5
2023-01-15T07:32:03.962Z,3.2
2023-01-15T07:33:03.935Z,3.2
2023-01-15T07:34:03.989Z,3.2
2023-01-15T07:35:03.989Z,2.4
2023-01-15T07:36:03.956Z,2.4
2023-01-15T07:37:03.944Z,2.4
2023-01-15T07:38:03.986Z,2.1
2023-01-15T07:39:03.991Z,2.1
2023-01-15T07:40:03.984Z,2.1
2023-01-15T07:41:04.034Z,2.1
2023-01-15T07:42:03.943Z,1.4
2023-01-15T07:43:03.940Z,1.4
2023-01-15T07:44:04.019Z,1.4
2023-01-15T07:45:03.985Z,2.3
2023-01-15T07:46:04.145Z,2.3
2023-01-15T07:47:04.071Z,2.3
2023-01-15T07:48:04.000Z,0.9
2023-01-15T07:49:03.991Z,0.9
2023-01-15T07:50:03.995Z,0.9
2023-01-15T07:51:03.982Z,0.9
2023-01-15T07:52:03.992Z,2.5
2023-01-15T07:53:03.985Z,2.5
2023-01-15T07:54:03.986Z,2.5
2023-01-15T07:55:03.981Z,2.4
2023-01-15T07:56:04.047Z,2.4
2023-01-15T07:57:04.022Z,2.4
2023-01-15T07:58:04.068Z,2.4
2023-01-15T07:59:04.004Z,2.4
2023-01-15T08:00:04.002Z,2.4
2023-01-15T08:01:04.080Z,2.4
2023-01-15T08:02:04.054Z,1.3
2023-01-15T08:03:04.019Z,1.3
2023-01-15T08:04:04.042Z,1.3
2023-01-15T08:05:03.996Z,1.2
2023-01-15T08:06:04.107Z,1.2
2023-01-15T08:07:04.021Z,1.2
2023-01-15T08:08:04.028Z,1.1
2023-01-15T08:09:04.024Z,1.1
2023-01-15T08:10:04.016Z,1.1
2023-01-15T08:11:04.019Z,1.1
2023-01-15T08:12:04.031Z,0.5
2023-01-15T08:13:04.118Z,0.5
2023-01-15T08:14:04.058Z,0.5
2023-01-15T08:15:04.090Z,0
2023-01-15T08:16:04.061Z,0
2023-01-15T08:17:04.079Z,0
2023-01-15T08:18:04.094Z,0.9
2023-01-15T08:19:04.091Z,0.9
2023-01-15T08:20:04.059Z,0.9
2023-01-15T08:21:04.055Z,0.9
2023-01-15T08:22:04.063Z,1.1
2023-01-15T08:23:04.098Z,1.1
2023-01-15T08:24:04.057Z,1.1
2023-01-15T08:25:04.056Z,0.5
2023-01-15T08:26:04.065Z,0.5
2023-01-15T08:27:04.081Z,0.5
2023-01-15T08:28:04.052Z,2.5
2023-01-15T08:29:04.057Z,2.5
2023-01-15T08:30:04.053Z,2.5
2023-01-15T08:31:04.068Z,2.5
2023-01-15T08:32:04.086Z,0
2023-01-15T08:33:04.069Z,0
2023-01-15T08:34:04.175Z,0
2023-01-15T08:35:04.092Z,0
2023-01-15T08:36:04.043Z,0
2023-01-15T08:37:04.038Z,1.2
2023-01-15T08:38:04.159Z,1.2
2023-01-15T08:39:04.224Z,1.2
2023-01-15T08:40:04.064Z,2.7
2023-01-15T08:41:04.086Z,2.7
2023-01-15T08:42:04.063Z,2.7
2023-01-15T08:43:04.064Z,2.7
2023-01-15T08:44:04.061Z,0.5
2023-01-15T08:45:04.070Z,0.5
2023-01-15T08:46:04.095Z,0.5
2023-01-15T08:47:04.068Z,0.5
2023-01-15T08:48:04.090Z,1.1
2023-01-15T08:49:05.856Z,1.1
2023-01-15T08:50:04.161Z,1.1
2023-01-15T08:51:04.156Z,1.1
2023-01-15T08:52:04.035Z,1.1
2023-01-15T08:53:04.121Z,1.5
2023-01-15T08:54:04.138Z,1.5
2023-01-15T08:55:04.045Z,1.5
2023-01-15T08:56:04.067Z,0.7
2023-01-15T08:57:04.033Z,0.7
2023-01-15T08:58:04.046Z,0.7
2023-01-15T08:59:04.095Z,0.7
2023-01-15T09:00:04.142Z,2.7
2023-01-15T09:01:04.191Z,2.7
2023-01-15T09:02:04.197Z,2.7
2023-01-15T09:03:04.040Z,2.7
2023-01-15T09:04:04.044Z,0
2023-01-15T09:05:04.284Z,0
2023-01-15T09:06:04.069Z,0
2023-01-15T09:07:04.120Z,1.5
2023-01-15T09:08:04.084Z,1.5
2023-01-15T09:09:04.045Z,1.5
2023-01-15T09:10:04.057Z,1.2
2023-01-15T09:11:04.079Z,1.2
2023-01-15T09:12:04.049Z,1.2
2023-01-15T09:13:04.041Z,1.2
2023-01-15T09:14:04.056Z,0.8
2023-01-15T09:15:04.052Z,0.8
2023-01-15T09:16:04.053Z,0.8
2023-01-15T09:17:04.057Z,0.8
2023-01-15T09:18:04.092Z,0.8
2023-01-15T09:19:04.092Z,0.8
2023-01-15T09:20:04.061Z,0.8
2023-01-15T09:21:04.063Z,2.6
2023-01-15T09:22:04.064Z,2.6
2023-01-15T09:23:04.047Z,2.6
2023-01-15T09:24:04.078Z,0.6
2023-01-15T09:25:04.047Z,0.6
2023-01-15T09:26:04.075Z,0.6
2023-01-15T09:27:04.109Z,2.6
2023-01-15T09:28:04.042Z,2.6
2023-01-15T09:29:04.151Z,2.6
2023-01-15T09:30:04.192Z,2.6
2023-01-15T09:31:04.105Z,3.7
2023-01-15T09:32:04.056Z,3.7
2023-01-15T09:33:04.087Z,3.7
2023-01-15T09:34:04.060Z,1.4
2023-01-15T09:35:04.065Z,1.4
2023-01-15T09:36:04.046Z,1.4
2023-01-15T09:37:04.059Z,1.3
2023-01-15T09:38:04.051Z,1.3
2023-01-15T09:39:04.080Z,1.3
2023-01-15T09:40:04.060Z,1.3
2023-01-15T09:41:04.044Z,3.8
2023-01-15T09:42:04.093Z,3.8
2023-01-15T09:43:04.041Z,3.8
2023-01-15T09:44:04.057Z,3.2
2023-01-15T09:45:04.071Z,3.2
2023-01-15T09:46:04.134Z,3.2
2023-01-15T09:47:04.058Z,2.5
2023-01-15T09:48:04.046Z,2.5
2023-01-15T09:49:04.070Z,2.5
2023-01-15T09:50:04.058Z,2.5
2023-01-15T09:51:04.079Z,0.8
2023-01-15T09:52:04.045Z,0.8
2023-01-15T09:53:04.073Z,0.8
2023-01-15T09:54:04.087Z,3.3
2023-01-15T09:55:04.083Z,3.3
2023-01-15T09:56:04.048Z,3.3
2023-01-15T09:57:04.104Z,0.8
2023-01-15T09:58:04.081Z,0.8
2023-01-15T09:59:04.090Z,0.8
2023-01-15T10:00:04.083Z,0.8
2023-01-15T10:01:04.128Z,1.1
2023-01-15T10:02:04.085Z,1.1
2023-01-15T10:03:04.172Z,1.1
2023-01-15T10:04:04.126Z,2.2
2023-01-15T10:05:05.566Z,2.2
2023-01-15T10:06:04.088Z,2.2
2023-01-15T10:07:04.102Z,2.4
2023-01-15T10:08:04.094Z,2.4
2023-01-15T10:09:04.098Z,2.4
2023-01-15T10:10:04.095Z,2.4
2023-01-15T10:11:04.092Z,1.7
2023-01-15T10:12:04.118Z,1.7
2023-01-15T10:13:04.118Z,1.7
2023-01-15T10:14:04.149Z,0.7
2023-01-15T10:15:04.101Z,0.7
2023-01-15T10:16:04.143Z,0.7
2023-01-15T10:17:04.088Z,1.2
2023-01-15T10:18:04.096Z,1.2
2023-01-15T10:19:04.144Z,1.2
2023-01-15T10:20:04.107Z,1.2
2023-01-15T10:21:04.090Z,2.4
2023-01-15T10:22:04.112Z,2.4
2023-01-15T10:23:04.107Z,2.4
2023-01-15T10:24:04.127Z,1
2023-01-15T10:25:04.154Z,1
2023-01-15T10:26:04.104Z,1
2023-01-15T10:27:04.124Z,0.7
2023-01-15T10:28:04.104Z,0.7
2023-01-15T10:29:04.100Z,0.7
2023-01-15T10:30:04.110Z,0.7
2023-01-15T10:31:04.153Z,0.7
2023-01-15T10:32:04.123Z,0.7
2023-01-15T10:33:04.122Z,0.7
2023-01-15T10:34:04.134Z,2.5
2023-01-15T10:35:04.119Z,2.5
2023-01-15T10:36:04.112Z,2.5
2023-01-15T10:37:04.117Z,1
2023-01-15T10:38:04.158Z,1
2023-01-15T10:39:04.163Z,1
2023-01-15T10:40:04.155Z,1
2023-01-15T10:41:04.141Z,0.5
2023-01-15T10:42:04.140Z,0.5
2023-01-15T10:43:04.147Z,0.5
2023-01-15T10:44:04.163Z,0.6
2023-01-15T10:45:04.194Z,0.6
2023-01-15T10:46:04.192Z,0.6
2023-01-15T10:47:04.154Z,1.3
2023-01-15T10:48:04.220Z,1.3
2023-01-15T10:49:04.171Z,1.3
2023-01-15T10:50:04.173Z,1.3
2023-01-15T10:51:04.165Z,2.7
2023-01-15T10:52:04.185Z,2.7
2023-01-15T10:53:04.176Z,2.7
2023-01-15T10:54:04.187Z,2
2023-01-15T10:55:04.179Z,2
2023-01-15T10:56:04.202Z,2
2023-01-15T10:57:04.166Z,0
2023-01-15T10:58:10.633Z,0
2023-01-15T10:59:04.129Z,0
2023-01-15T11:00:04.195Z,0
2023-01-15T11:01:04.328Z,1.6
2023-01-15T11:02:04.303Z,1.6
2023-01-15T11:03:04.240Z,1.6
2023-01-15T11:04:04.148Z,2.8
2023-01-15T11:05:04.183Z,2.8
2023-01-15T11:06:04.133Z,2.8
2023-01-15T11:07:04.132Z,3.1
2023-01-15T11:08:36.839Z,3.1
2023-01-15T11:09:09.601Z,3.1
2023-01-15T11:10:04.134Z,3.1
2023-01-15T11:11:04.144Z,1.2
2023-01-15T11:12:04.193Z,1.2
2023-01-15T11:13:04.135Z,1.2
2023-01-15T11:14:04.135Z,1
2023-01-15T11:15:04.155Z,1
2023-01-15T11:16:04.240Z,1
2023-01-15T11:17:04.137Z,2.2
2023-01-15T11:18:04.168Z,2.2
2023-01-15T11:19:04.147Z,2.2
2023-01-15T11:20:04.145Z,2.2
2023-01-15T11:21:04.136Z,0.8
2023-01-15T11:22:04.165Z,0.8
2023-01-15T11:23:04.151Z,0.8
2023-01-15T11:24:04.144Z,3.3
2023-01-15T11:25:04.165Z,3.3
2023-01-15T11:26:04.133Z,3.3
2023-01-15T11:27:04.153Z,2.8
2023-01-15T11:28:04.149Z,2.8
2023-01-15T11:29:04.134Z,2.8
2023-01-15T11:30:04.163Z,2.8
2023-01-15T11:31:04.294Z,1.5
2023-01-15T11:32:04.208Z,1.5
2023-01-15T11:33:04.314Z,1.5
2023-01-15T11:34:04.143Z,1.4
2023-01-15T11:35:04.184Z,1.4
2023-01-15T11:36:04.142Z,1.4
2023-01-15T11:37:04.176Z,2.4
2023-01-15T11:38:04.135Z,2.4
2023-01-15T11:39:04.151Z,2.4
2023-01-15T11:40:04.148Z,2.4
2023-01-15T11:41:04.157Z,2.9
2023-01-15T11:42:04.170Z,2.9
2023-01-15T11:43:04.150Z,2.9
2023-01-15T11:44:04.152Z,2.6
2023-01-15T11:45:04.138Z,2.6
2023-01-15T11:46:04.188Z,2.6
2023-01-15T11:47:04.165Z,0.7
2023-01-15T11:48:04.151Z,0.7
2023-01-15T11:49:04.233Z,0.7
2023-01-15T11:50:04.220Z,0.7
2023-01-15T11:51:04.267Z,2.5
2023-01-15T11:52:04.290Z,2.5
2023-01-15T11:53:04.161Z,2.5
2023-01-15T11:54:04.170Z,1.8
2023-01-15T11:55:04.169Z,1.8
2023-01-15T11:56:04.166Z,1.8
2023-01-15T11:57:04.150Z,1.6
2023-01-15T11:58:04.144Z,1.6
2023-01-15T11:59:04.188Z,1.6
2023-01-15T12:00:04.160Z,1.6
2023-01-15T12:01:04.206Z,2.2
2023-01-15T12:02:04.170Z,2.2
2023-01-15T12:03:04.148Z,2.2
2023-01-15T12:04:04.310Z,3.4
2023-01-15T12:05:04.176Z,3.4
2023-01-15T12:06:04.184Z,3.4
2023-01-15T12:07:04.138Z,3.4
2023-01-15T12:08:04.187Z,3.5
2023-01-15T12:09:04.140Z,3.5
2023-01-15T12:10:04.162Z,3.5
2023-01-15T12:11:14.152Z,3.2
2023-01-15T12:12:04.152Z,3.2
2023-01-15T12:13:04.170Z,3.2
2023-01-15T12:14:04.139Z,3.4
2023-01-15T12:15:04.169Z,3.4
2023-01-15T12:16:04.242Z,3.4
2023-01-15T12:17:04.141Z,3.4
2023-01-15T12:18:04.183Z,1.6
2023-01-15T12:19:04.163Z,1.6
2023-01-15T12:20:04.190Z,1.6
2023-01-15T12:21:04.148Z,3.2
2023-01-15T12:22:04.154Z,3.2
2023-01-15T12:23:04.176Z,3.2
2023-01-15T12:24:04.145Z,2.3
2023-01-15T12:25:04.160Z,2.3
2023-01-15T12:26:04.151Z,2.3
2023-01-15T12:27:05.780Z,2.3
2023-01-15T12:28:04.145Z,3.9
2023-01-15T12:29:04.170Z,3.9
2023-01-15T12:30:04.160Z,3.9
2023-01-15T12:31:04.220Z,1.6
2023-01-15T12:32:04.156Z,1.6
2023-01-15T12:33:04.168Z,1.6
2023-01-15T12:34:04.148Z,2.5
2023-01-15T12:35:04.168Z,2.5
2023-01-15T12:36:04.177Z,2.5
2023-01-15T12:37:04.167Z,2.5
2023-01-15T12:38:04.153Z,1.2
2023-01-15T12:39:04.172Z,1.2
2023-01-15T12:40:04.164Z,1.2
2023-01-15T12:41:04.157Z,3.6
2023-01-15T12:42:04.180Z,3.6
2023-01-15T12:43:04.186Z,3.6
2023-01-15T12:44:04.142Z,2.6
2023-01-15T12:45:04.497Z,2.6
2023-01-15T12:46:04.160Z,2.6
2023-01-15T12:47:04.155Z,2.6
2023-01-15T12:48:04.176Z,2.6
2023-01-15T12:49:04.189Z,2.6
2023-01-15T12:50:04.170Z,2.6
2023-01-15T12:51:04.181Z,3.5
2023-01-15T12:52:04.152Z,3.5
2023-01-15T12:53:04.173Z,3.5
2023-01-15T12:54:04.160Z,0.9
2023-01-15T12:55:04.166Z,0.9
2023-01-15T12:56:04.173Z,0.9
2023-01-15T12:57:04.166Z,0.9
2023-01-15T12:58:04.160Z,2.6
2023-01-15T12:59:04.178Z,2.6
2023-01-15T13:00:04.159Z,2.6
2023-01-15T13:01:04.260Z,1.9
2023-01-15T13:02:04.309Z,1.9
2023-01-15T13:03:04.161Z,1.9
2023-01-15T13:04:04.154Z,2.8
2023-01-15T13:05:04.165Z,2.8
2023-01-15T13:06:04.167Z,2.8
2023-01-15T13:07:04.162Z,2.8
2023-01-15T13:08:04.170Z,1.9
2023-01-15T13:09:04.162Z,1.9
2023-01-15T13:10:04.162Z,1.9
2023-01-15T13:11:04.182Z,2.4
2023-01-15T13:12:04.179Z,2.4
2023-01-15T13:13:04.165Z,2.4
2023-01-15T13:14:04.158Z,1.6
2023-01-15T13:15:04.158Z,1.6
2023-01-15T13:16:04.230Z,1.6
2023-01-15T13:17:04.166Z,1.6
2023-01-15T13:18:04.188Z,2.6
2023-01-15T13:19:04.152Z,2.6
2023-01-15T13:20:04.194Z,2.6
2023-01-15T13:21:04.171Z,2.1
2023-01-15T13:22:04.184Z,2.1
2023-01-15T13:23:04.159Z,2.1
2023-01-15T13:24:04.168Z,1.4
2023-01-15T13:25:04.172Z,1.4
2023-01-15T13:26:04.173Z,1.4
2023-01-15T13:27:04.181Z,1.4
2023-01-15T13:28:04.192Z,2.4
2023-01-15T13:29:04.220Z,2.4
2023-01-15T13:30:04.185Z,2.4
2023-01-15T13:31:04.196Z,2.2
2023-01-15T13:32:04.191Z,2.2
2023-01-15T13:33:04.195Z,2.2
2023-01-15T13:34:04.199Z,2.2
2023-01-15T13:35:04.201Z,1
2023-01-15T13:36:04.186Z,1
2023-01-15T13:37:04.219Z,1
2023-01-15T13:38:04.208Z,3.3
2023-01-15T13:39:04.245Z,3.3
2023-01-15T13:40:04.247Z,3.3
2023-01-15T13:41:04.232Z,2.2
2023-01-15T13:42:04.268Z,2.2
2023-01-15T13:43:04.248Z,2.2
2023-01-15T13:44:04.263Z,2.2
2023-01-15T13:45:04.261Z,2.9
2023-01-15T13:46:04.293Z,2.9
2023-01-15T13:47:04.263Z,2.9
2023-01-15T13:48:04.241Z,0.9
2023-01-15T13:49:04.292Z,0.9
2023-01-15T13:50:04.487Z,0.9
2023-01-15T13:51:04.277Z,0.9